Time;durP1;ratioP1;P1;durP2;ratioP2;P2;SDS_P1;SDS_P2;PMS_P1;PMS_P2;Temp;Humidity;BMP_temperature;BMP_pressure;BME280_temperature;BME280_humidity;BME280_pressure;Samples;Min_cycle;Max_cycle;Signal;HPM_P1;HPM_P2
2021/12/02 00:00:42;;;;;;;30.93;19.57;;;7.20;88.90;;;;;;4956997;29;20229;-70
2021/12/02 00:03:09;;;;;;;26.40;19.47;;;7.20;89.00;;;;;;4966535;28;20220;-70
2021/12/02 00:05:37;;;;;;;26.13;20.03;;;7.20;89.10;;;;;;4954076;29;20213;-70
2021/12/02 00:08:05;;;;;;;25.67;19.63;;;7.20;89.10;;;;;;4957344;28;20521;-70
2021/12/02 00:10:34;;;;;;;33.27;20.63;;;7.20;89.30;;;;;;4957422;28;20260;-70
2021/12/02 00:13:03;;;;;;;26.27;20.37;;;7.20;89.40;;;;;;4956304;29;20232;-70
2021/12/02 00:21:03;;;;;;;28.83;20.80;;;7.30;89.70;;;;;;4967834;28;20319;-70
2021/12/02 00:21:26;;;;;;;31.03;21.03;;;7.30;89.70;;;;;;4955725;29;20637;-70
2021/12/02 00:24:07;;;;;;;27.70;20.20;;;7.30;89.60;;;;;;4957287;28;20240;-70
2021/12/02 00:26:37;;;;;;;25.90;20.10;;;7.30;89.60;;;;;;4966206;28;20293;-70
2021/12/02 00:29:07;;;;;;;26.83;21.17;;;7.30;89.60;;;;;;4957365;28;20236;-70
2021/12/02 00:31:37;;;;;;;24.50;20.03;;;7.40;89.60;;;;;;4956771;28;20221;-70
2021/12/02 00:34:08;;;;;;;29.60;21.70;;;7.40;89.60;;;;;;4955794;29;20304;-70
2021/12/02 00:36:37;;;;;;;30.63;21.53;;;7.40;89.80;;;;;;4956490;29;20221;-70
2021/12/02 00:39:13;;;;;;;32.40;23.50;;;7.40;89.90;;;;;;4953488;29;20251;-70
2021/12/02 00:41:42;;;;;;;31.40;22.40;;;7.40;90.00;;;;;;4954449;28;20219;-70
2021/12/02 00:44:11;;;;;;;26.97;22.20;;;7.40;90.10;;;;;;4957255;28;20649;-70
2021/12/02 00:46:39;;;;;;;30.43;22.10;;;7.50;90.20;;;;;;4956667;28;20292;-70
2021/12/02 00:49:13;;;;;;;31.60;23.60;;;7.40;90.20;;;;;;4954722;28;20260;-70
2021/12/02 00:51:44;;;;;;;31.53;22.97;;;7.50;90.30;;;;;;4956531;28;20300;-70
2021/12/02 00:54:12;;;;;;;30.30;23.43;;;7.50;90.30;;;;;;4955776;29;20209;-70
2021/12/02 00:56:41;;;;;;;30.73;22.40;;;7.50;90.40;;;;;;4964935;28;20307;-70
2021/12/02 00:59:08;;;;;;;29.37;22.27;;;7.50;90.40;;;;;;4948758;28;20277;-70
2021/12/02 01:01:38;;;;;;;28.50;22.87;;;7.50;90.40;;;;;;4963805;28;20248;-70
2021/12/02 01:04:10;;;;;;;30.03;22.70;;;7.50;90.30;;;;;;4942011;29;20217;-70
2021/12/02 01:06:39;;;;;;;30.83;23.83;;;7.50;90.40;;;;;;4955927;28;20646;-70
2021/12/02 01:09:10;;;;;;;28.17;21.60;;;7.40;90.40;;;;;;4955911;28;20315;-70
2021/12/02 01:11:38;;;;;;;28.63;22.13;;;7.40;90.50;;;;;;4969621;28;20259;-69
2021/12/02 01:14:07;;;;;;;28.10;21.80;;;7.40;90.60;;;;;;4953011;29;20305;-69
2021/12/02 01:16:35;;;;;;;32.30;24.10;;;7.40;90.70;;;;;;4953155;29;20250;-69
2021/12/02 01:19:04;;;;;;;30.57;24.40;;;7.40;90.80;;;;;;4955021;29;20204;-69
2021/12/02 01:21:32;;;;;;;35.67;24.80;;;7.40;90.80;;;;;;4955398;28;20300;-69
2021/12/02 01:24:03;;;;;;;34.63;24.87;;;7.40;90.90;;;;;;4955962;28;20297;-69
2021/12/02 01:26:32;;;;;;;33.00;25.33;;;7.30;91.00;;;;;;4967409;28;20556;-69
2021/12/02 01:29:02;;;;;;;30.63;24.23;;;7.40;91.10;;;;;;4958148;28;20216;-69
2021/12/02 01:31:35;;;;;;;32.93;24.47;;;7.40;91.10;;;;;;4955907;28;20240;-69
2021/12/02 01:34:08;;;;;;;34.73;24.60;;;7.40;91.10;;;;;;4955021;29;20221;-69
2021/12/02 01:36:38;;;;;;;34.60;24.73;;;7.40;91.20;;;;;;4958358;29;20252;-69
2021/12/02 01:39:08;;;;;;;32.13;25.00;;;7.40;91.10;;;;;;4971275;28;20217;-69
2021/12/02 01:41:43;;;;;;;34.37;25.47;;;7.50;91.10;;;;;;4957175;29;20586;-69
2021/12/02 01:44:13;;;;;;;35.20;25.53;;;7.50;91.20;;;;;;4973231;28;20284;-70
2021/12/02 01:46:44;;;;;;;32.90;25.33;;;7.40;91.20;;;;;;4947951;28;20225;-70
2021/12/02 01:49:13;;;;;;;31.00;24.37;;;7.50;91.30;;;;;;4959017;28;20230;-70
2021/12/02 01:51:47;;;;;;;34.83;25.63;;;7.40;91.40;;;;;;4959230;29;20224;-70
2021/12/02 01:54:17;;;;;;;33.00;25.13;;;7.50;91.50;;;;;;4940476;29;20301;-70
2021/12/02 01:56:49;;;;;;;32.70;25.47;;;7.50;91.60;;;;;;4958459;28;20299;-70
2021/12/02 01:59:28;;;;;;;36.83;27.47;;;7.50;91.70;;;;;;4966447;28;20583;-69
2021/12/02 02:01:57;;;;;;;36.07;26.13;;;7.40;91.70;;;;;;4971603;28;20216;-70
2021/12/02 02:04:25;;;;;;;37.27;27.17;;;7.40;91.80;;;;;;4958550;29;20203;-69
2021/12/02 02:07:02;;;;;;;41.07;29.93;;;7.40;92.00;;;;;;4956653;29;20226;-69
2021/12/02 02:09:32;;;;;;;36.77;26.53;;;7.40;92.10;;;;;;4958427;29;20240;-69
2021/12/02 02:12:06;;;;;;;36.87;27.20;;;7.40;92.50;;;;;;4953920;29;20656;-69
2021/12/02 02:14:34;;;;;;;39.33;28.57;;;7.30;92.60;;;;;;4956441;29;20213;-69
2021/12/02 02:17:09;;;;;;;40.73;28.90;;;7.30;92.50;;;;;;4957594;28;20515;-69
2021/12/02 02:19:36;;;;;;;40.00;30.40;;;7.20;92.60;;;;;;4956121;28;20212;-69
2021/12/02 02:22:05;;;;;;;41.07;30.37;;;7.20;92.70;;;;;;4953752;29;20237;-69
2021/12/02 02:24:32;;;;;;;41.83;30.53;;;7.30;92.80;;;;;;4954429;29;20290;-69
2021/12/02 02:27:01;;;;;;;40.53;29.80;;;7.30;92.90;;;;;;4967760;28;20304;-69
2021/12/02 02:29:28;;;;;;;44.60;30.40;;;7.30;92.90;;;;;;4955184;28;20595;-69
2021/12/02 02:31:55;;;;;;;40.37;29.67;;;7.30;93.00;;;;;;4953217;29;20256;-69
2021/12/02 02:34:24;;;;;;;41.67;30.10;;;7.30;93.00;;;;;;4952410;29;20696;-69
2021/12/02 02:36:54;;;;;;;41.40;29.57;;;7.30;93.00;;;;;;4955253;28;20306;-69
2021/12/02 02:39:23;;;;;;;43.10;29.60;;;7.30;93.00;;;;;;4970141;28;20224;-69
2021/12/02 02:42:01;;;;;;;42.63;29.93;;;7.30;93.10;;;;;;4965409;28;20280;-69
2021/12/02 02:44:30;;;;;;;40.90;30.27;;;7.30;93.10;;;;;;4954903;28;20307;-69
2021/12/02 02:46:58;;;;;;;40.17;29.03;;;7.30;93.10;;;;;;4949045;28;20248;-69
2021/12/02 02:49:25;;;;;;;41.00;28.50;;;7.30;93.20;;;;;;4953467;29;20197;-69
2021/12/02 02:51:53;;;;;;;42.70;29.67;;;7.40;93.30;;;;;;4950924;29;20225;-69
2021/12/02 02:54:22;;;;;;;42.00;31.00;;;7.30;93.30;;;;;;4954875;28;20201;-69
2021/12/02 02:56:58;;;;;;;40.37;29.87;;;7.30;93.30;;;;;;4952726;28;20263;-69
2021/12/02 03:05:17;;;;;;;38.77;28.07;;;7.20;93.60;;;;;;4954363;29;20674;-69
2021/12/02 03:07:55;;;;;;;42.17;30.63;;;7.20;93.60;;;;;;4968123;28;20577;-69
2021/12/02 03:10:44;;;;;;;38.50;30.10;;;7.20;93.70;;;;;;4953354;29;20288;-69
2021/12/02 03:18:29;;;;;;;43.37;31.47;;;7.20;93.70;;;;;;4958090;29;20310;-69
2021/12/02 03:20:56;;;;;;;43.53;32.17;;;7.30;93.80;;;;;;4958124;28;20285;-69
2021/12/02 03:23:24;;;;;;;41.03;29.93;;;7.30;93.70;;;;;;4958708;28;20282;-69
2021/12/02 03:25:52;;;;;;;39.57;29.87;;;7.30;93.70;;;;;;4958018;28;20698;-69
2021/12/02 03:28:19;;;;;;;41.50;30.43;;;7.30;93.70;;;;;;4958505;28;20206;-69
2021/12/02 03:30:46;;;;;;;37.57;28.87;;;7.30;93.70;;;;;;4955262;29;20221;-69
2021/12/02 03:33:14;;;;;;;38.83;30.60;;;7.40;93.70;;;;;;4957452;29;20224;-69
2021/12/02 03:35:43;;;;;;;41.60;31.47;;;7.40;93.70;;;;;;4958010;28;20607;-69
2021/12/02 03:38:28;;;;;;;39.60;29.40;;;7.40;93.70;;;;;;4956825;28;20265;-69
2021/12/02 03:40:55;;;;;;;41.77;31.53;;;7.40;93.60;;;;;;4957952;28;20213;-69
2021/12/02 03:43:22;;;;;;;41.43;29.50;;;7.40;93.60;;;;;;4955178;28;20213;-69
2021/12/02 03:45:50;;;;;;;44.33;30.83;;;7.40;93.50;;;;;;4958022;28;20510;-69
2021/12/02 03:48:18;;;;;;;43.70;30.63;;;7.40;93.40;;;;;;4958559;28;20231;-69
2021/12/02 03:50:45;;;;;;;41.13;29.73;;;7.40;93.40;;;;;;4957841;28;20604;-69
2021/12/02 03:53:13;;;;;;;40.07;30.33;;;7.40;93.40;;;;;;4957975;28;20212;-69
2021/12/02 03:55:40;;;;;;;41.13;30.53;;;7.40;93.50;;;;;;4958482;29;20251;-69
2021/12/02 03:58:07;;;;;;;41.63;30.93;;;7.30;93.50;;;;;;4957944;28;20335;-69
2021/12/02 04:00:35;;;;;;;45.10;31.70;;;7.30;93.60;;;;;;4957201;28;20224;-69
2021/12/02 04:03:02;;;;;;;42.17;30.53;;;7.30;93.70;;;;;;4956670;29;20244;-69
2021/12/02 04:05:30;;;;;;;42.20;31.43;;;7.30;93.70;;;;;;4957805;28;20211;-69
2021/12/02 04:07:57;;;;;;;41.87;29.70;;;7.40;93.70;;;;;;4954192;29;20573;-69
2021/12/02 04:10:25;;;;;;;40.53;28.57;;;7.40;93.70;;;;;;4956788;28;20248;-69
2021/12/02 04:13:19;;;;;;;41.53;29.27;;;7.40;93.80;;;;;;4956800;29;20297;-69
2021/12/02 04:15:49;;;;;;;38.20;28.63;;;7.40;93.80;;;;;;4959522;28;20225;-69
2021/12/02 04:18:17;;;;;;;38.37;28.60;;;7.40;93.70;;;;;;4957690;28;20226;-69
2021/12/02 04:20:47;;;;;;;38.03;28.20;;;7.40;93.70;;;;;;4957081;28;20208;-69
2021/12/02 04:23:15;;;;;;;39.43;27.00;;;7.40;93.70;;;;;;4953884;28;20234;-69
2021/12/02 04:25:43;;;;;;;35.40;28.57;;;7.40;93.70;;;;;;4956396;28;20214;-69
2021/12/02 04:28:10;;;;;;;37.80;29.20;;;7.40;93.70;;;;;;4957936;28;20292;-69
2021/12/02 04:30:37;;;;;;;39.33;28.70;;;7.30;93.70;;;;;;4956734;28;20205;-69
2021/12/02 04:33:05;;;;;;;41.27;30.97;;;7.30;93.70;;;;;;4954975;29;20223;-69
2021/12/02 04:35:32;;;;;;;40.30;29.13;;;7.30;93.80;;;;;;4956130;29;20236;-69
2021/12/02 04:37:59;;;;;;;38.67;29.70;;;7.30;93.90;;;;;;4956443;28;20214;-69
2021/12/02 04:40:27;;;;;;;40.10;29.93;;;7.30;94.00;;;;;;4956037;28;20686;-69
2021/12/02 04:42:54;;;;;;;44.30;30.60;;;7.30;94.00;;;;;;4970569;28;20254;-69
2021/12/02 04:45:21;;;;;;;43.47;32.33;;;7.40;94.00;;;;;;4955952;29;20205;-69
2021/12/02 04:47:49;;;;;;;41.77;31.40;;;7.40;94.10;;;;;;4955939;29;20224;-69
2021/12/02 04:50:16;;;;;;;42.93;30.27;;;7.40;94.10;;;;;;4955437;29;20609;-69
2021/12/02 04:52:43;;;;;;;41.70;30.13;;;7.40;94.10;;;;;;4953458;29;20323;-69
2021/12/02 04:55:11;;;;;;;45.03;32.27;;;7.40;94.10;;;;;;4956915;28;20204;-69
2021/12/02 04:57:38;;;;;;;43.47;30.97;;;7.40;94.10;;;;;;4955514;29;20221;-69
2021/12/02 05:00:06;;;;;;;39.30;30.80;;;7.40;94.00;;;;;;4956866;28;20209;-69
2021/12/02 05:02:34;;;;;;;43.07;31.23;;;7.50;94.00;;;;;;4955361;29;20200;-69
2021/12/02 05:05:01;;;;;;;42.93;30.30;;;7.50;94.00;;;;;;4956936;29;20227;-69
2021/12/02 05:07:29;;;;;;;38.90;29.23;;;7.50;93.90;;;;;;4953332;29;20558;-69
2021/12/02 05:09:56;;;;;;;42.07;29.77;;;7.50;93.80;;;;;;4956615;28;20208;-69
2021/12/02 05:12:23;;;;;;;44.67;31.83;;;7.50;93.70;;;;;;4953234;28;20215;-69
2021/12/02 05:14:51;;;;;;;41.77;30.87;;;7.50;93.70;;;;;;4948122;28;20219;-69
2021/12/02 05:17:18;;;;;;;43.77;31.67;;;7.40;93.80;;;;;;4970853;28;20685;-69
2021/12/02 05:19:46;;;;;;;45.77;32.10;;;7.40;93.90;;;;;;4955363;29;20211;-69
2021/12/02 05:22:14;;;;;;;43.37;30.03;;;7.40;94.00;;;;;;4956063;28;20343;-69
2021/12/02 05:24:41;;;;;;;44.33;29.90;;;7.40;94.10;;;;;;4956276;28;20217;-69
2021/12/02 05:27:09;;;;;;;43.70;30.57;;;7.40;94.00;;;;;;4956033;28;20209;-69
2021/12/02 05:29:36;;;;;;;39.87;27.97;;;7.40;94.00;;;;;;4955248;29;20202;-69
2021/12/02 05:32:04;;;;;;;42.07;29.30;;;7.30;94.10;;;;;;4955213;28;20216;-69
2021/12/02 05:34:33;;;;;;;41.67;29.33;;;7.30;94.20;;;;;;4955309;28;20318;-69
2021/12/02 05:37:01;;;;;;;43.87;29.93;;;7.30;94.30;;;;;;4965532;28;20296;-69
2021/12/02 05:39:28;;;;;;;47.63;31.53;;;7.30;94.30;;;;;;4953700;28;20217;-69
2021/12/02 05:41:56;;;;;;;46.33;32.20;;;7.30;94.40;;;;;;4950454;29;20237;-69
2021/12/02 05:44:24;;;;;;;47.07;33.00;;;7.30;94.50;;;;;;4962381;28;20217;-69
2021/12/02 05:46:52;;;;;;;45.73;29.70;;;7.30;94.50;;;;;;4954706;29;20320;-69
2021/12/02 05:49:19;;;;;;;43.60;31.17;;;7.30;94.50;;;;;;4942299;28;20240;-69
2021/12/02 05:51:46;;;;;;;45.77;31.03;;;7.40;94.50;;;;;;4953691;28;20306;-69
2021/12/02 05:54:14;;;;;;;46.17;30.70;;;7.30;94.30;;;;;;4955901;28;20238;-69
2021/12/02 05:56:41;;;;;;;41.37;31.10;;;7.40;94.30;;;;;;4953228;29;20681;-70
2021/12/02 05:59:08;;;;;;;44.20;30.43;;;7.30;94.30;;;;;;4961361;28;20689;-69
2021/12/02 06:01:40;;;;;;;47.53;30.87;;;7.30;94.30;;;;;;4953772;28;20875;-69
2021/12/02 06:04:09;;;;;;;45.90;31.50;;;7.30;94.40;;;;;;4952803;29;20608;-69
2021/12/02 06:06:37;;;;;;;47.60;31.63;;;7.30;94.40;;;;;;4948074;29;20232;-69
2021/12/02 06:09:05;;;;;;;41.83;30.67;;;7.30;94.40;;;;;;4953599;28;20605;-69
2021/12/02 06:11:32;;;;;;;41.47;30.83;;;7.30;94.40;;;;;;4953867;29;20594;-69
2021/12/02 06:14:00;;;;;;;46.73;31.07;;;7.40;94.40;;;;;;4960976;28;20621;-69
2021/12/02 06:16:27;;;;;;;46.30;31.80;;;7.40;94.80;;;;;;4954647;29;20213;-69
2021/12/02 06:18:54;;;;;;;41.77;31.07;;;7.40;94.50;;;;;;4951500;28;20229;-69
2021/12/02 06:21:22;;;;;;;42.60;30.73;;;7.40;94.50;;;;;;4954194;29;20342;-69
2021/12/02 06:23:49;;;;;;;36.30;29.17;;;7.50;94.50;;;;;;4953652;28;20205;-69
2021/12/02 06:26:16;;;;;;;37.00;28.00;;;7.50;94.50;;;;;;4954761;28;20537;-69
2021/12/02 06:28:43;;;;;;;36.63;29.20;;;7.50;94.50;;;;;;4955321;28;20236;-69
2021/12/02 06:31:11;;;;;;;36.80;28.33;;;7.50;94.40;;;;;;4951573;29;20227;-69
2021/12/02 06:33:38;;;;;;;35.63;27.73;;;7.50;94.30;;;;;;4955339;28;20215;-69
2021/12/02 06:36:05;;;;;;;37.60;28.73;;;7.50;94.20;;;;;;4952387;29;20244;-69
2021/12/02 06:38:41;;;;;;;37.80;28.10;;;7.50;94.20;;;;;;4953585;28;20252;-69
2021/12/02 06:41:09;;;;;;;37.83;27.47;;;7.50;94.20;;;;;;4955748;28;20213;-69
2021/12/02 06:43:36;;;;;;;34.10;27.47;;;7.50;94.20;;;;;;4969827;28;20221;-69
2021/12/02 06:46:03;;;;;;;34.70;27.83;;;7.50;94.20;;;;;;4951669;29;20335;-69
2021/12/02 06:48:30;;;;;;;41.37;28.80;;;7.50;94.10;;;;;;4954879;29;20657;-69
2021/12/02 06:50:58;;;;;;;35.13;27.33;;;7.50;94.20;;;;;;4953505;29;20300;-68
2021/12/02 06:53:25;;;;;;;34.57;27.57;;;7.50;94.20;;;;;;4953042;28;20526;-68
2021/12/02 06:55:52;;;;;;;34.10;26.87;;;7.50;94.20;;;;;;4952918;28;20255;-68
2021/12/02 06:58:20;;;;;;;33.87;26.70;;;7.50;94.20;;;;;;4952468;28;20228;-68
2021/12/02 07:00:47;;;;;;;28.97;24.93;;;7.50;94.10;;;;;;4952873;28;20216;-68
2021/12/02 07:03:14;;;;;;;33.73;27.00;;;7.60;94.10;;;;;;4938604;28;20654;-68
2021/12/02 07:05:43;;;;;;;31.57;25.10;;;7.60;94.10;;;;;;4951792;28;20237;-68
2021/12/02 07:08:11;;;;;;;34.27;25.33;;;7.60;94.10;;;;;;4953727;28;20216;-68
2021/12/02 07:10:40;;;;;;;29.33;23.73;;;7.60;94.00;;;;;;4950169;28;20244;-68
2021/12/02 07:13:08;;;;;;;32.13;25.87;;;7.60;94.00;;;;;;4953943;29;20216;-68
2021/12/02 07:15:50;;;;;;;29.90;24.50;;;7.60;94.00;;;;;;4968744;28;20209;-68
2021/12/02 07:18:18;;;;;;;32.50;25.53;;;7.60;94.00;;;;;;4953027;29;20695;-68
2021/12/02 07:20:48;;;;;;;33.60;24.93;;;7.60;93.90;;;;;;4954523;28;20287;-68
2021/12/02 07:23:18;;;;;;;28.97;24.63;;;7.60;93.90;;;;;;4952911;28;20244;-68
2021/12/02 07:25:48;;;;;;;36.93;26.37;;;7.60;93.90;;;;;;4952446;29;20233;-68
2021/12/02 07:28:17;;;;;;;39.03;29.23;;;7.60;93.90;;;;;;4946701;28;20290;-68
2021/12/02 07:30:50;;;;;;;43.47;29.53;;;7.60;93.90;;;;;;4961700;28;20261;-68
2021/12/02 07:33:18;;;;;;;41.80;30.23;;;7.60;93.90;;;;;;4953999;29;20205;-68
2021/12/02 07:35:47;;;;;;;35.70;28.07;;;7.60;93.80;;;;;;4953042;28;20695;-68
2021/12/02 07:38:15;;;;;;;34.77;27.17;;;7.70;93.90;;;;;;4949956;28;20240;-69
2021/12/02 07:40:43;;;;;;;38.63;28.30;;;7.60;93.80;;;;;;4953020;28;20220;-69
2021/12/02 07:43:10;;;;;;;37.90;28.47;;;7.60;93.80;;;;;;4951264;28;20295;-68
2021/12/02 07:45:38;;;;;;;39.23;29.73;;;7.60;93.80;;;;;;4953155;29;20235;-68
2021/12/02 07:48:07;;;;;;;39.00;28.33;;;7.60;93.80;;;;;;4954331;28;20297;-68
2021/12/02 07:50:36;;;;;;;43.47;31.83;;;7.60;93.80;;;;;;4953072;29;20612;-68
2021/12/02 07:53:08;;;;;;;40.60;30.00;;;7.60;93.80;;;;;;4953757;28;20234;-68
2021/12/02 07:55:38;;;;;;;40.63;29.87;;;7.60;93.90;;;;;;4947772;29;20523;-68
2021/12/02 07:58:07;;;;;;;39.70;29.73;;;7.60;93.90;;;;;;4952984;28;20213;-68
2021/12/02 08:00:36;;;;;;;44.10;31.97;;;7.60;93.90;;;;;;4955868;29;20203;-68
2021/12/02 08:03:07;;;;;;;47.13;33.00;;;7.60;93.90;;;;;;4955544;29;20224;-68
2021/12/02 08:05:35;;;;;;;41.33;30.47;;;7.50;93.90;;;;;;4954088;29;20213;-68
2021/12/02 08:08:03;;;;;;;45.60;32.20;;;7.60;94.00;;;;;;4955336;29;20241;-68
2021/12/02 08:10:31;;;;;;;43.20;33.03;;;7.60;94.00;;;;;;4956254;28;20274;-68
2021/12/02 08:13:00;;;;;;;45.73;34.33;;;7.60;94.00;;;;;;4955958;29;20213;-68
2021/12/02 08:15:28;;;;;;;44.40;34.33;;;7.60;94.00;;;;;;4956782;28;20254;-68
2021/12/02 08:17:57;;;;;;;51.33;34.37;;;7.60;93.90;;;;;;4957179;28;20215;-68
2021/12/02 08:20:26;;;;;;;49.00;34.53;;;7.60;94.00;;;;;;4949249;29;20198;-68
2021/12/02 08:22:54;;;;;;;51.33;34.27;;;7.60;94.00;;;;;;4953400;28;20238;-68
2021/12/02 08:25:23;;;;;;;51.33;34.97;;;7.70;94.00;;;;;;4956656;28;20212;-68
2021/12/02 08:27:50;;;;;;;50.43;34.13;;;7.70;94.00;;;;;;4957055;28;20304;-68
2021/12/02 08:30:23;;;;;;;45.20;33.67;;;7.70;93.90;;;;;;4956007;29;20296;-68
2021/12/02 08:32:51;;;;;;;48.07;34.00;;;7.70;93.90;;;;;;4956035;29;20242;-68
2021/12/02 08:35:19;;;;;;;53.80;36.70;;;7.80;94.00;;;;;;4967001;28;20621;-68
2021/12/02 08:37:49;;;;;;;52.13;35.80;;;7.80;93.90;;;;;;4955656;28;20216;-68
2021/12/02 08:40:19;;;;;;;51.50;35.83;;;7.80;93.90;;;;;;4954331;29;20249;-68
2021/12/02 08:42:47;;;;;;;49.33;36.13;;;7.90;93.80;;;;;;4955631;29;20213;-68
2021/12/02 08:45:15;;;;;;;51.93;36.10;;;7.90;93.80;;;;;;4955859;28;20600;-68
2021/12/02 08:47:44;;;;;;;52.03;37.63;;;7.90;93.80;;;;;;4970052;28;20221;-68
2021/12/02 08:50:13;;;;;;;51.77;35.57;;;7.90;93.80;;;;;;4955886;28;20228;-68
2021/12/02 08:52:42;;;;;;;51.50;36.43;;;8.00;93.80;;;;;;4956313;28;20736;-68
2021/12/02 08:55:10;;;;;;;49.90;35.50;;;8.00;93.80;;;;;;4955182;29;20226;-68
2021/12/02 08:57:46;;;;;;;52.17;36.73;;;8.00;93.80;;;;;;4954835;29;20212;-68
2021/12/02 09:00:16;;;;;;;52.43;36.37;;;8.10;93.80;;;;;;4955604;28;20275;-69
2021/12/02 09:02:44;;;;;;;53.70;36.20;;;8.10;93.70;;;;;;4953524;29;20289;-69
2021/12/02 09:05:12;;;;;;;49.67;35.57;;;8.10;93.70;;;;;;4954505;28;20581;-69
2021/12/02 09:07:39;;;;;;;49.03;35.67;;;8.20;93.70;;;;;;4955602;28;20284;-69
2021/12/02 09:10:09;;;;;;;50.67;35.03;;;8.20;93.60;;;;;;4954645;28;20256;-69
2021/12/02 09:12:36;;;;;;;51.40;34.80;;;8.20;93.60;;;;;;4952396;29;20308;-69
2021/12/02 09:15:08;;;;;;;47.47;33.23;;;8.30;93.60;;;;;;4958270;28;20315;-69
2021/12/02 09:17:36;;;;;;;49.87;34.60;;;8.30;93.60;;;;;;4953779;29;20634;-69
2021/12/02 09:20:06;;;;;;;46.50;34.03;;;8.30;93.50;;;;;;4956059;28;20312;-69
2021/12/02 09:22:33;;;;;;;45.33;32.63;;;8.40;93.50;;;;;;4954671;28;20248;-69
2021/12/02 09:25:04;;;;;;;49.17;33.60;;;8.40;93.40;;;;;;4957408;28;20213;-69
2021/12/02 09:27:31;;;;;;;44.93;31.90;;;8.40;93.50;;;;;;4954623;29;20282;-69
2021/12/02 09:30:00;;;;;;;42.63;31.37;;;8.40;93.40;;;;;;4958274;28;20225;-69
2021/12/02 09:32:27;;;;;;;44.73;32.03;;;8.50;93.50;;;;;;4955605;28;20225;-69
2021/12/02 09:34:55;;;;;;;44.33;30.87;;;8.50;93.40;;;;;;4953119;29;20228;-69
2021/12/02 09:37:23;;;;;;;46.37;31.83;;;8.60;93.40;;;;;;4955722;28;20608;-69
2021/12/02 09:39:50;;;;;;;43.33;30.73;;;8.60;93.30;;;;;;4951885;29;20730;-69
2021/12/02 09:42:17;;;;;;;43.07;31.13;;;8.60;93.30;;;;;;4956258;28;20650;-69
2021/12/02 09:45:00;;;;;;;46.13;31.20;;;8.60;93.20;;;;;;4955602;29;20604;-69
2021/12/02 09:47:33;;;;;;;46.57;31.77;;;8.70;93.20;;;;;;4954634;29;20569;-69
2021/12/02 09:50:07;;;;;;;45.17;31.63;;;8.70;93.30;;;;;;4953448;29;20229;-69
2021/12/02 09:52:38;;;;;;;44.37;30.87;;;8.70;93.30;;;;;;4954079;29;20300;-69
2021/12/02 09:55:25;;;;;;;41.83;29.43;;;8.80;93.20;;;;;;4956377;28;20313;-69
2021/12/02 09:57:56;;;;;;;46.73;30.57;;;8.80;93.20;;;;;;4961668;28;20597;-69
2021/12/02 10:00:38;;;;;;;42.03;30.50;;;8.80;93.20;;;;;;4954628;28;20253;-69
2021/12/02 10:03:18;;;;;;;44.13;30.97;;;8.90;93.20;;;;;;4952957;29;20214;-69
2021/12/02 10:05:55;;;;;;;44.07;30.17;;;8.90;93.10;;;;;;4953013;29;20194;-69
2021/12/02 10:08:31;;;;;;;41.37;30.03;;;8.90;93.00;;;;;;4967383;28;20217;-69
2021/12/02 10:11:07;;;;;;;47.00;30.13;;;8.90;93.00;;;;;;4965019;28;20211;-69
2021/12/02 10:13:49;;;;;;;42.37;30.23;;;8.90;93.00;;;;;;4966851;28;20276;-69
2021/12/02 10:16:25;;;;;;;47.13;30.23;;;9.00;93.00;;;;;;4950813;29;20260;-69
2021/12/02 10:21:40;;;;;;;45.83;30.67;;;9.00;92.70;;;;;;4949612;28;20248;-69
2021/12/02 10:24:14;;;;;;;39.90;28.57;;;9.00;92.70;;;;;;4961447;28;20233;-69
2021/12/02 10:26:52;;;;;;;43.63;30.03;;;8.90;92.40;;;;;;4964092;28;20260;-68
2021/12/02 10:29:41;;;;;;;45.73;30.40;;;8.90;92.10;;;;;;4953228;29;20544;-68
2021/12/02 10:32:17;;;;;;;43.67;31.47;;;8.90;92.30;;;;;;4950743;28;20222;-68
2021/12/02 10:34:55;;;;;;;44.47;30.33;;;8.90;92.50;;;;;;4954638;29;20288;-68
2021/12/02 10:37:28;;;;;;;41.47;30.60;;;9.00;92.60;;;;;;4950138;29;20643;-68
2021/12/02 10:40:14;;;;;;;43.17;30.33;;;9.00;92.60;;;;;;4951499;28;20658;-69
2021/12/02 10:42:44;;;;;;;43.57;29.60;;;9.00;92.60;;;;;;4951627;28;20206;-68
2021/12/02 10:45:21;;;;;;;41.00;30.40;;;9.10;92.70;;;;;;4952860;29;20522;-69
2021/12/02 10:47:50;;;;;;;37.40;28.00;;;9.10;92.60;;;;;;4954408;29;20593;-68
2021/12/02 10:50:19;;;;;;;41.17;29.73;;;9.10;92.30;;;;;;4965345;28;20218;-69
2021/12/02 10:52:46;;;;;;;42.90;29.23;;;9.00;92.30;;;;;;4953405;29;20267;-68
2021/12/02 10:55:19;;;;;;;45.17;29.27;;;9.00;92.20;;;;;;4951965;29;20240;-68
2021/12/02 10:57:54;;;;;;;41.40;31.57;;;9.00;92.20;;;;;;4955132;28;20788;-69
2021/12/02 11:00:22;;;;;;;44.50;30.30;;;9.00;92.40;;;;;;4947663;29;20253;-69
2021/12/02 11:02:55;;;;;;;43.23;29.77;;;9.00;92.50;;;;;;4950312;29;20202;-68
2021/12/02 11:05:34;;;;;;;42.37;30.00;;;9.10;92.60;;;;;;4951348;29;20214;-68
2021/12/02 11:08:05;;;;;;;45.40;31.50;;;9.20;92.60;;;;;;4951594;29;20348;-68
2021/12/02 11:10:44;;;;;;;44.00;30.17;;;9.20;92.60;;;;;;4951212;28;20212;-69
2021/12/02 11:13:19;;;;;;;41.10;30.10;;;9.20;92.60;;;;;;4952083;29;20232;-69
2021/12/02 11:15:47;;;;;;;38.50;27.83;;;9.20;92.50;;;;;;4959712;28;20237;-68
2021/12/02 11:18:16;;;;;;;38.70;27.83;;;9.20;92.50;;;;;;4967170;28;20222;-68
2021/12/02 11:20:47;;;;;;;41.70;28.90;;;9.30;92.40;;;;;;4951502;29;20230;-69
2021/12/02 11:23:18;;;;;;;42.20;28.90;;;9.30;92.40;;;;;;4955316;29;20198;-68
2021/12/02 11:25:49;;;;;;;40.37;27.43;;;9.30;92.40;;;;;;4963110;28;20229;-69
2021/12/02 11:28:17;;;;;;;38.97;28.53;;;9.30;92.30;;;;;;4954940;29;20198;-68
2021/12/02 11:30:45;;;;;;;41.17;29.93;;;9.30;92.30;;;;;;4956596;28;20257;-68
2021/12/02 11:33:35;;;;;;;40.57;30.00;;;9.30;92.30;;;;;;4954758;28;20206;-68
2021/12/02 11:36:05;;;;;;;39.93;28.73;;;9.30;92.40;;;;;;4960357;29;20228;-69
2021/12/02 11:38:34;;;;;;;37.13;27.47;;;9.30;92.40;;;;;;4962490;28;20302;-69
2021/12/02 11:41:03;;;;;;;37.00;28.37;;;9.30;92.40;;;;;;4962140;29;20798;-69
2021/12/02 11:43:35;;;;;;;37.70;27.87;;;9.40;92.40;;;;;;4958081;29;20639;-69
2021/12/02 11:46:04;;;;;;;36.47;27.33;;;9.40;92.30;;;;;;4958720;28;20217;-69
2021/12/02 11:48:39;;;;;;;44.30;28.93;;;9.50;92.40;;;;;;4969859;28;20284;-68
2021/12/02 11:51:10;;;;;;;34.40;26.67;;;9.50;92.30;;;;;;4957871;29;20229;-68
2021/12/02 11:53:37;;;;;;;39.27;28.40;;;9.50;92.30;;;;;;4959358;29;20249;-68
2021/12/02 11:56:11;;;;;;;36.87;27.03;;;9.50;92.20;;;;;;4957126;28;20212;-68
2021/12/02 11:58:38;;;;;;;39.50;29.03;;;9.50;92.10;;;;;;4959496;28;20225;-69
2021/12/02 12:01:09;;;;;;;39.57;29.10;;;9.50;92.40;;;;;;4960036;28;20236;-69
2021/12/02 12:03:43;;;;;;;37.37;28.97;;;9.50;92.10;;;;;;4958085;28;20302;-69
2021/12/02 12:06:21;;;;;;;38.00;28.47;;;9.50;92.10;;;;;;4973226;28;20863;-68
2021/12/02 12:08:50;;;;;;;38.03;28.37;;;9.50;92.20;;;;;;4958440;28;20210;-68
2021/12/02 12:11:24;;;;;;;35.23;27.40;;;9.50;92.10;;;;;;4954685;29;20236;-68
2021/12/02 12:13:59;;;;;;;38.20;28.20;;;9.50;92.10;;;;;;4973262;28;20301;-68
2021/12/02 12:16:41;;;;;;;36.83;27.20;;;9.50;92.10;;;;;;4972550;28;20581;-68
2021/12/02 12:19:26;;;;;;;36.07;28.50;;;9.40;92.00;;;;;;4958451;28;20565;-68
2021/12/02 12:21:58;;;;;;;37.87;28.27;;;9.40;91.90;;;;;;4957343;29;20380;-68
2021/12/02 12:24:41;;;;;;;39.27;27.37;;;9.30;91.80;;;;;;4957402;29;20223;-68
2021/12/02 12:27:15;;;;;;;33.73;27.03;;;9.30;91.80;;;;;;4952842;28;20246;-68
2021/12/02 12:29:45;;;;;;;34.10;27.00;;;9.20;91.70;;;;;;4957273;29;20272;-68
2021/12/02 12:32:37;;;;;;;34.70;26.13;;;9.20;91.70;;;;;;4958041;29;20224;-68
2021/12/02 12:35:15;;;;;;;34.93;28.33;;;9.10;91.90;;;;;;4962067;28;20241;-68
2021/12/02 12:40:16;;;;;;;38.13;27.33;;;9.10;92.10;;;;;;4958481;29;20580;-69
2021/12/02 12:42:57;;;;;;;36.23;26.93;;;9.10;92.30;;;;;;4957114;29;20208;-68
2021/12/02 12:45:39;;;;;;;35.27;27.10;;;9.20;92.40;;;;;;4957207;28;20241;-68
2021/12/02 12:48:09;;;;;;;36.90;26.67;;;9.10;92.20;;;;;;4958870;29;20225;-68
2021/12/02 12:50:42;;;;;;;35.97;26.80;;;9.10;92.20;;;;;;4957008;29;20250;-68
2021/12/02 12:53:15;;;;;;;35.87;26.47;;;9.10;92.20;;;;;;4955071;29;20214;-68
2021/12/02 12:55:52;;;;;;;31.83;24.83;;;9.10;92.30;;;;;;4955744;29;20245;-68
2021/12/02 12:58:30;;;;;;;31.93;24.40;;;9.20;92.40;;;;;;4972153;28;20257;-68
2021/12/02 13:01:26;;;;;;;32.10;24.53;;;9.20;92.50;;;;;;4957053;29;20328;-68
2021/12/02 13:04:14;;;;;;;31.97;25.33;;;9.20;92.40;;;;;;4953601;29;20210;-69
2021/12/02 13:07:16;;;;;;;31.93;24.03;;;9.20;92.50;;;;;;4967837;28;20222;-69
2021/12/02 13:12:36;;;;;;;31.27;25.43;;;9.20;92.50;;;;;;4955070;29;20198;-69
2021/12/02 13:15:06;;;;;;;31.50;25.43;;;9.20;92.50;;;;;;4955104;29;20236;-69